createdAt,value
2022-09-04T00:01:16.180Z,1.65
2022-09-04T00:04:00.090Z,7.15
2022-09-04T00:06:42.674Z,2.03
2022-09-04T00:09:24.273Z,1.55
2022-09-04T00:12:09.267Z,1.42
2022-09-04T00:14:52.235Z,4.95
2022-09-04T00:17:36.067Z,4.70
2022-09-04T00:20:24.564Z,5.38
2022-09-04T00:23:07.500Z,4.00
2022-09-04T00:25:52.191Z,2.28
2022-09-04T00:28:36.516Z,2.70
2022-09-04T00:31:26.615Z,2.00
2022-09-04T00:34:15.086Z,2.15
2022-09-04T00:36:55.145Z,2.58
2022-09-04T00:39:39.501Z,5.20
2022-09-04T00:43:08.285Z,6.47
2022-09-04T00:46:06.818Z,4.50
2022-09-04T00:49:24.255Z,3.35
2022-09-04T00:52:15.312Z,3.42
2022-09-04T00:55:11.372Z,4.15
2022-09-04T00:58:18.959Z,5.00
2022-09-04T01:00:58.820Z,6.57
2022-09-04T01:03:51.327Z,5.95
2022-09-04T01:06:46.004Z,6.60
2022-09-04T01:09:44.354Z,10.60
2022-09-04T01:12:38.021Z,6.53
2022-09-04T01:15:20.977Z,5.85
2022-09-04T01:18:05.225Z,5.30
2022-09-04T01:20:56.437Z,9.57
2022-09-04T01:24:07.524Z,7.10
2022-09-04T01:26:54.690Z,6.25
2022-09-04T01:29:50.563Z,7.20
2022-09-04T01:32:37.176Z,3.95
2022-09-04T01:35:24.735Z,4.78
2022-09-04T01:38:17.416Z,5.85
2022-09-04T01:41:00.283Z,5.10
2022-09-04T01:43:36.069Z,3.90
2022-09-04T01:46:39.110Z,5.63
2022-09-04T01:49:36.666Z,5.45
2022-09-04T01:52:29.294Z,4.13
2022-09-04T01:55:22.362Z,3.80
2022-09-04T01:58:14.430Z,5.28
2022-09-04T02:01:21.288Z,4.15
2022-09-04T02:04:13.649Z,9.25
2022-09-04T02:07:01.038Z,4.65
2022-09-04T02:09:56.718Z,3.88
2022-09-04T02:12:38.658Z,3.92
2022-09-04T02:15:23.813Z,4.85
2022-09-04T02:18:12.554Z,3.88
2022-09-04T02:21:04.438Z,2.13
2022-09-04T02:23:46.895Z,2.88
2022-09-04T02:26:29.768Z,3.95
2022-09-04T02:29:15.352Z,6.30
2022-09-04T02:31:59.995Z,4.70
2022-09-04T02:34:45.909Z,3.08
2022-09-04T02:37:28.410Z,2.75
2022-09-04T02:40:12.033Z,2.95
2022-09-04T02:43:07.667Z,2.67
2022-09-04T02:45:50.253Z,2.58
2022-09-04T02:48:43.109Z,4.03
2022-09-04T02:51:45.675Z,3.08
2022-09-04T02:54:38.528Z,4.05
2022-09-04T02:57:30.124Z,2.85
2022-09-04T03:00:11.700Z,2.20
2022-09-04T03:02:56.184Z,3.05
2022-09-04T03:05:35.413Z,5.40
2022-09-04T03:08:20.796Z,2.88
2022-09-04T03:11:01.656Z,2.45
2022-09-04T03:13:51.153Z,2.03
2022-09-04T03:16:33.660Z,2.35
2022-09-04T03:19:19.154Z,1.70
2022-09-04T03:22:03.556Z,2.30
2022-09-04T03:25:06.270Z,1.33
2022-09-04T03:27:43.158Z,1.63
2022-09-04T03:30:21.797Z,1.50
2022-09-04T03:33:07.833Z,2.95
2022-09-04T03:35:53.753Z,1.55
2022-09-04T03:38:42.542Z,2.25
2022-09-04T03:41:35.520Z,3.40
2022-09-04T03:44:24.064Z,1.80
2022-09-04T03:47:08.085Z,1.63
2022-09-04T03:49:59.668Z,1.70
2022-09-04T03:52:47.112Z,1.38
2022-09-04T03:55:41.462Z,2.85
2022-09-04T03:58:29.952Z,1.80
2022-09-04T04:01:24.704Z,5.78
2022-09-04T04:04:38.186Z,1.77
2022-09-04T04:07:28.789Z,1.20
2022-09-04T04:13:23.384Z,3.03
2022-09-04T04:16:26.224Z,2.07
2022-09-04T04:19:27.105Z,1.50
2022-09-04T04:22:25.586Z,1.40
2022-09-04T04:25:28.081Z,1.80
2022-09-04T04:28:20.471Z,1.25
2022-09-04T04:31:06.664Z,1.55
2022-09-04T04:33:52.567Z,1.48
2022-09-04T04:36:37.374Z,1.60
2022-09-04T04:39:30.541Z,1.63
2022-09-04T04:42:21.109Z,1.17
2022-09-04T04:45:28.279Z,1.88
2022-09-04T04:49:00.191Z,2.33
2022-09-04T04:51:58.577Z,3.17
2022-09-04T04:54:52.820Z,1.50
2022-09-04T04:57:40.092Z,1.35
2022-09-04T05:00:23.985Z,2.63
2022-09-04T05:03:09.412Z,2.05
2022-09-04T05:05:58.450Z,1.08
2022-09-04T05:08:44.084Z,2.17
2022-09-04T05:11:34.780Z,1.55
2022-09-04T05:17:05.805Z,1.35
2022-09-04T05:19:50.941Z,0.95
2022-09-04T05:22:40.165Z,1.73
2022-09-04T05:25:26.413Z,1.33
2022-09-04T05:28:14.854Z,2.17
2022-09-04T05:30:57.824Z,1.48
2022-09-04T05:33:40.051Z,1.73
2022-09-04T05:36:32.187Z,1.75
2022-09-04T05:39:17.068Z,1.70
2022-09-04T05:42:07.726Z,1.83
2022-09-04T05:47:42.001Z,1.60
2022-09-04T05:50:38.745Z,2.35
2022-09-04T05:53:41.207Z,1.45
2022-09-04T05:57:07.295Z,1.98
2022-09-04T06:00:11.662Z,2.05
2022-09-04T06:03:32.824Z,2.25
2022-09-04T06:06:15.371Z,2.70
2022-09-04T06:09:20.029Z,9.63
2022-09-04T06:12:22.828Z,5.07
2022-09-04T06:15:17.571Z,2.83
2022-09-04T06:18:11.619Z,2.65
2022-09-04T06:21:42.471Z,1.77
2022-09-04T06:24:45.668Z,2.67
2022-09-04T06:27:53.724Z,1.98
2022-09-04T06:30:39.103Z,1.75
2022-09-04T06:33:44.952Z,1.98
2022-09-04T06:36:47.726Z,1.92
2022-09-04T06:39:57.463Z,1.67
2022-09-04T06:42:50.170Z,2.35
2022-09-04T06:45:38.063Z,1.17
2022-09-04T06:48:25.495Z,2.05
2022-09-04T06:51:11.812Z,1.98
2022-09-04T06:54:07.640Z,2.13
2022-09-04T06:57:07.146Z,2.00
2022-09-04T07:00:06.876Z,2.42
2022-09-04T07:03:10.695Z,1.80
2022-09-04T07:05:56.262Z,1.90
2022-09-04T07:08:49.092Z,2.38
2022-09-04T07:11:45.048Z,1.55
2022-09-04T07:14:47.630Z,3.25
2022-09-04T07:17:32.136Z,1.30
2022-09-04T07:20:19.548Z,2.88
2022-09-04T07:23:17.640Z,1.85
2022-09-04T07:26:05.533Z,5.60
2022-09-04T07:29:01.878Z,1.63
2022-09-04T07:31:45.652Z,2.13
2022-09-04T07:34:30.955Z,2.33
2022-09-04T07:37:17.802Z,1.48
2022-09-04T07:40:03.687Z,1.60
2022-09-04T07:42:51.088Z,1.38
2022-09-04T07:45:37.229Z,2.35
2022-09-04T07:48:22.518Z,2.10
2022-09-04T07:51:10.320Z,1.55
2022-09-04T07:54:22.982Z,2.92
2022-09-04T07:57:51.918Z,2.08
2022-09-04T08:00:29.126Z,2.83
2022-09-04T08:03:27.714Z,2.13
2022-09-04T08:06:19.685Z,1.77
2022-09-04T08:09:14.499Z,2.40
2022-09-04T08:12:29.166Z,1.98
2022-09-04T08:15:22.115Z,2.58
2022-09-04T08:18:21.763Z,1.52
2022-09-04T08:21:14.042Z,1.67
2022-09-04T08:24:50.128Z,3.42
2022-09-04T08:27:44.384Z,2.00
2022-09-04T08:30:23.405Z,1.48
2022-09-04T08:34:03.586Z,2.83
2022-09-04T08:36:50.281Z,1.90
2022-09-04T08:39:49.037Z,2.08
2022-09-04T08:43:06.857Z,2.17
2022-09-04T08:46:29.009Z,2.60
2022-09-04T08:50:00.975Z,2.92
2022-09-04T08:53:24.159Z,2.85
2022-09-04T08:56:32.423Z,2.05
2022-09-04T08:59:56.795Z,1.45
2022-09-04T09:03:17.585Z,2.10
2022-09-04T09:06:54.329Z,1.33
2022-09-04T09:10:15.659Z,1.70
2022-09-04T09:13:33.280Z,1.77
2022-09-04T09:16:26.055Z,1.40
2022-09-04T09:19:23.944Z,1.13
2022-09-04T09:22:12.500Z,1.40
2022-09-04T09:25:19.870Z,1.27
2022-09-04T09:28:56.390Z,1.50
2022-09-04T09:32:11.368Z,2.60
2022-09-04T09:35:59.284Z,0.98
2022-09-04T09:39:46.226Z,1.45
2022-09-04T09:43:11.684Z,1.20
2022-09-04T09:46:26.205Z,1.65
2022-09-04T09:49:38.884Z,2.40
2022-09-04T09:53:16.047Z,1.85
2022-09-04T09:56:41.211Z,0.90
2022-09-04T10:19:30.415Z,1.05
2022-09-04T10:22:52.206Z,1.98
2022-09-04T10:26:18.597Z,1.70
2022-09-04T10:29:34.557Z,1.23
2022-09-04T10:33:11.538Z,2.58
2022-09-04T10:36:04.281Z,2.08
2022-09-04T10:38:58.675Z,1.17
2022-09-04T10:41:53.348Z,1.20
2022-09-04T10:44:47.200Z,1.15
2022-09-04T10:48:07.475Z,1.73
2022-09-04T10:54:12.041Z,1.30
2022-09-04T10:57:06.846Z,0.88
2022-09-04T11:00:02.630Z,0.80
2022-09-04T11:03:28.758Z,0.85
2022-09-04T11:06:47.639Z,1.10
2022-09-04T11:09:58.092Z,0.90
2022-09-04T11:13:48.122Z,1.85
2022-09-04T11:16:50.576Z,1.17
2022-09-04T11:23:10.463Z,0.60
2022-09-04T11:26:26.512Z,2.10
2022-09-04T11:29:22.822Z,0.98
2022-09-04T11:32:28.229Z,1.38
2022-09-04T11:35:43.408Z,1.40
2022-09-04T11:38:59.741Z,1.23
2022-09-04T11:42:12.578Z,1.17
2022-09-04T11:45:17.806Z,1.20
2022-09-04T11:48:37.943Z,1.90
2022-09-04T11:55:08.272Z,1.13
2022-09-04T11:58:15.311Z,1.45
2022-09-04T12:01:04.169Z,0.75
2022-09-04T12:04:24.620Z,1.67
2022-09-04T12:07:25.106Z,1.02
2022-09-04T12:10:24.320Z,1.25
2022-09-04T12:13:40.317Z,2.47
2022-09-04T12:16:56.021Z,1.98
2022-09-04T12:20:12.620Z,1.30
2022-09-04T12:23:30.133Z,1.20
2022-09-04T12:26:58.143Z,2.15
2022-09-04T12:30:01.164Z,3.33
2022-09-04T12:33:08.943Z,0.80
2022-09-04T12:36:23.232Z,0.82
2022-09-04T12:40:01.658Z,0.90
2022-09-04T12:42:50.064Z,1.10
2022-09-04T12:45:41.151Z,2.15
2022-09-04T12:48:36.263Z,1.33
2022-09-04T12:51:15.080Z,1.13
2022-09-04T12:54:20.609Z,1.20
2022-09-04T12:57:17.890Z,1.00
2022-09-04T13:00:12.640Z,2.17
2022-09-04T13:03:18.425Z,1.13
2022-09-04T13:06:11.324Z,1.35
2022-09-04T13:09:15.287Z,0.90
2022-09-04T13:12:06.108Z,0.90
2022-09-04T13:15:13.723Z,1.92
2022-09-04T13:18:04.496Z,1.20
2022-09-04T13:20:49.566Z,1.42
2022-09-04T13:24:00.143Z,1.30
2022-09-04T13:26:54.798Z,0.98
2022-09-04T13:29:44.178Z,1.30
2022-09-04T13:32:54.581Z,1.65
2022-09-04T13:35:57.612Z,1.17
2022-09-04T13:39:45.301Z,0.93
2022-09-04T13:43:05.811Z,1.40
2022-09-04T13:45:49.182Z,1.20
2022-09-04T13:48:44.875Z,1.90
2022-09-04T13:51:38.489Z,2.13
2022-09-04T13:57:33.735Z,1.15
2022-09-04T14:00:24.361Z,0.90
2022-09-04T14:03:04.584Z,1.73
2022-09-04T14:06:11.391Z,1.50
2022-09-04T14:09:04.903Z,1.17
2022-09-04T14:12:16.055Z,1.13
2022-09-04T14:15:32.391Z,0.88
2022-09-04T14:18:45.285Z,1.15
2022-09-04T14:25:17.812Z,2.15
2022-09-04T14:31:26.923Z,1.00
2022-09-04T14:37:24.685Z,1.27
2022-09-04T14:40:08.431Z,1.48
2022-09-04T14:42:52.149Z,1.42
2022-09-04T14:45:54.418Z,1.02
2022-09-04T14:48:51.479Z,0.70
2022-09-04T14:51:39.135Z,2.28
2022-09-04T14:54:27.184Z,1.08
2022-09-04T15:00:18.418Z,1.60
2022-09-04T15:03:09.748Z,1.20
2022-09-04T15:06:03.703Z,0.95
2022-09-04T15:08:45.035Z,1.30
2022-09-04T15:11:50.441Z,1.00
2022-09-04T15:14:35.327Z,1.35
2022-09-04T15:17:17.496Z,1.33
2022-09-04T15:20:01.265Z,1.67
2022-09-04T15:22:43.320Z,1.60
2022-09-04T15:25:59.265Z,2.05
2022-09-04T15:32:14.300Z,1.08
2022-09-04T15:35:09.366Z,0.93
2022-09-04T15:37:59.276Z,1.35
2022-09-04T15:41:05.909Z,1.10
2022-09-04T15:43:50.195Z,1.17
2022-09-04T15:46:56.954Z,3.30
2022-09-04T15:49:50.663Z,1.45
2022-09-04T15:52:40.806Z,1.83
2022-09-04T15:55:28.520Z,2.78
2022-09-04T15:58:12.140Z,1.40
2022-09-04T16:01:16.889Z,2.80
2022-09-04T16:04:02.179Z,1.05
2022-09-04T16:06:48.157Z,1.02
2022-09-04T16:09:29.537Z,0.60
2022-09-04T16:12:11.623Z,1.92
2022-09-04T16:14:50.394Z,1.10
2022-09-04T16:17:30.599Z,1.65
2022-09-04T16:20:33.456Z,0.80
2022-09-04T16:23:15.932Z,0.90
2022-09-04T16:25:56.896Z,1.02
2022-09-04T16:28:41.672Z,1.67
2022-09-04T16:31:26.132Z,1.02
2022-09-04T16:34:08.937Z,2.97
2022-09-04T16:36:48.400Z,2.20
2022-09-04T16:39:32.390Z,1.50
2022-09-04T16:42:21.902Z,1.58
2022-09-04T16:45:04.332Z,4.30
2022-09-04T16:47:47.554Z,1.08
2022-09-04T16:50:32.455Z,1.90
2022-09-04T16:53:14.558Z,0.68
2022-09-04T16:55:59.310Z,1.35
2022-09-04T16:58:46.253Z,0.85
2022-09-04T17:01:29.276Z,1.15
2022-09-04T17:04:43.334Z,1.98
2022-09-04T17:07:37.355Z,1.52
2022-09-04T17:10:36.494Z,1.05
2022-09-04T17:13:18.336Z,0.90
2022-09-04T17:16:04.126Z,1.08
2022-09-04T17:18:43.863Z,0.75
2022-09-04T17:25:32.703Z,2.17
2022-09-04T17:29:09.384Z,1.40
2022-09-04T17:29:12.275Z,1.08
2022-09-04T17:31:07.484Z,1.35
2022-09-04T17:40:13.743Z,1.35
2022-09-04T17:40:40.956Z,1.80
2022-09-04T17:40:53.466Z,2.20
2022-09-04T17:43:28.871Z,1.48
2022-09-04T17:46:26.770Z,5.07
2022-09-04T17:49:10.381Z,1.00
2022-09-04T17:51:52.354Z,1.65
2022-09-04T17:54:42.228Z,1.05
2022-09-04T17:57:53.124Z,4.80
2022-09-04T18:00:35.205Z,1.15
2022-09-04T18:03:26.926Z,1.10
2022-09-04T18:06:12.455Z,2.22
2022-09-04T18:08:58.089Z,1.80
2022-09-04T18:11:41.316Z,1.67
2022-09-04T18:14:33.013Z,1.98
2022-09-04T18:17:13.569Z,1.98
2022-09-04T18:19:52.450Z,1.30
2022-09-04T18:22:34.041Z,1.63
2022-09-04T18:25:16.577Z,1.95
2022-09-04T18:28:11.677Z,2.40
2022-09-04T18:37:09.342Z,2.92
2022-09-04T18:37:44.541Z,3.45
2022-09-04T18:40:39.194Z,3.20
2022-09-04T18:50:33.996Z,2.45
2022-09-04T18:50:48.581Z,2.75
2022-09-04T18:52:59.487Z,3.55
2022-09-04T18:55:47.014Z,2.65
2022-09-04T18:59:00.359Z,2.55
2022-09-04T19:02:01.106Z,1.65
2022-09-04T19:07:47.575Z,1.65
2022-09-04T19:10:27.091Z,2.20
2022-09-04T19:13:09.151Z,2.72
2022-09-04T19:16:02.257Z,2.13
2022-09-04T19:18:52.921Z,2.05
2022-09-04T19:21:36.583Z,6.32
2022-09-04T19:24:28.684Z,4.07
2022-09-04T19:27:28.504Z,1.33
2022-09-04T19:30:18.923Z,1.60
2022-09-04T19:33:10.268Z,1.70
2022-09-04T19:35:54.653Z,1.48
2022-09-04T19:45:57.805Z,3.72
2022-09-04T19:46:00.059Z,3.63
2022-09-04T19:46:17.044Z,1.40
2022-09-04T19:48:19.399Z,1.17
2022-09-04T19:53:30.441Z,1.95
2022-09-04T19:54:06.358Z,1.92
2022-09-04T19:57:31.210Z,2.47
2022-09-04T19:59:51.208Z,3.25
2022-09-04T20:02:37.187Z,1.95
2022-09-04T20:05:23.950Z,2.00
2022-09-04T20:08:21.298Z,2.80
2022-09-04T20:11:02.274Z,1.77
2022-09-04T20:13:49.916Z,2.50
2022-09-04T20:16:31.679Z,1.83
2022-09-04T20:19:20.241Z,1.38
2022-09-04T20:22:08.379Z,1.92
2022-09-04T20:27:47.784Z,1.23
2022-09-04T20:30:31.621Z,1.98
2022-09-04T20:33:12.386Z,2.13
2022-09-04T20:35:54.380Z,1.45
2022-09-04T20:38:46.217Z,1.60
2022-09-04T20:41:28.299Z,1.48
2022-09-04T20:44:17.027Z,1.83
2022-09-04T20:52:45.033Z,1.17
2022-09-04T20:52:52.603Z,1.15
2022-09-04T20:53:09.607Z,1.80
2022-09-04T20:56:26.094Z,2.25
2022-09-04T21:03:11.196Z,1.50
2022-09-04T21:03:19.733Z,2.28
2022-09-04T21:06:06.717Z,0.90
2022-09-04T21:08:50.695Z,3.03
2022-09-04T21:11:40.803Z,2.55
2022-09-04T21:14:26.926Z,1.98
2022-09-04T21:17:35.088Z,3.05
2022-09-04T21:20:48.578Z,3.90
2022-09-04T21:24:24.956Z,2.42
2022-09-04T21:27:31.326Z,2.17
2022-09-04T21:30:10.604Z,2.35
2022-09-04T21:33:28.050Z,3.90
2022-09-04T21:36:26.272Z,3.63
2022-09-04T21:39:39.970Z,2.45
2022-09-04T21:42:46.383Z,2.22
2022-09-04T21:45:37.120Z,1.80
2022-09-04T21:48:46.356Z,2.17
2022-09-04T21:51:44.769Z,1.88
2022-09-04T21:58:21.279Z,2.17
2022-09-04T22:02:42.418Z,1.85
2022-09-04T22:02:45.896Z,3.58
2022-09-04T22:04:51.215Z,1.95
2022-09-04T22:11:08.830Z,1.83
2022-09-04T22:14:03.187Z,3.05
2022-09-04T22:17:22.640Z,1.85
2022-09-04T22:20:21.145Z,2.08
2022-09-04T22:23:42.751Z,2.50
2022-09-04T22:27:00.291Z,2.40
2022-09-04T22:30:07.105Z,2.25
2022-09-04T22:33:45.578Z,2.15
2022-09-04T22:37:05.262Z,2.33
2022-09-04T22:40:16.803Z,2.72
2022-09-04T22:43:07.067Z,3.42
2022-09-04T22:46:54.797Z,2.13
2022-09-04T22:50:10.460Z,3.38
2022-09-04T22:53:05.904Z,2.63
2022-09-04T22:56:22.623Z,2.78
2022-09-04T22:59:27.918Z,3.58
2022-09-04T23:03:04.171Z,2.33
2022-09-04T23:08:03.015Z,2.38
2022-09-04T23:13:50.840Z,2.03
2022-09-04T23:13:57.903Z,3.25
2022-09-04T23:22:56.632Z,2.67
2022-09-04T23:26:42.226Z,1.92
2022-09-04T23:26:45.515Z,1.42
2022-09-04T23:28:52.909Z,2.17
2022-09-04T23:32:06.813Z,2.50
2022-09-04T23:35:14.547Z,2.22
2022-09-04T23:38:17.073Z,2.08
2022-09-04T23:40:55.319Z,3.28
2022-09-04T23:44:09.292Z,2.13
2022-09-04T23:47:10.339Z,5.10
2022-09-04T23:50:12.724Z,1.42
2022-09-04T23:53:04.527Z,2.65
2022-09-04T23:56:02.988Z,3.28
2022-09-04T23:59:21.296Z,3.22
